createdAt,value
2023-01-02T00:01:58.108Z,100917.47
2023-01-02T00:05:00.465Z,100941.06
2023-01-02T00:08:02.854Z,100949.84
2023-01-02T00:11:05.321Z,100941.06
2023-01-02T00:14:07.767Z,100941.56
2023-01-02T00:17:10.081Z,100943.81
2023-01-02T00:20:12.473Z,100936.72
2023-01-02T00:23:14.855Z,100923.91
2023-01-02T00:26:17.239Z,100909.47
2023-01-02T00:29:19.538Z,100914.69
2023-01-02T00:32:21.903Z,100914.16
2023-01-02T00:35:24.390Z,100910.03
2023-01-02T00:38:26.798Z,100920.63
2023-01-02T00:41:29.152Z,100933.94
2023-01-02T00:44:31.574Z,100926.88
2023-01-02T00:47:33.947Z,100935.81
2023-01-02T00:50:36.284Z,100932.78
2023-01-02T00:53:38.640Z,100944.78
2023-01-02T00:56:40.986Z,100936.47
2023-01-02T00:59:43.379Z,100937.03
2023-01-02T01:02:45.793Z,100934.03
2023-01-02T01:05:48.363Z,100931.59
2023-01-02T01:08:50.752Z,100941.34
2023-01-02T01:11:53.225Z,100948.41
2023-01-02T01:14:55.523Z,100936.28
2023-01-02T01:17:57.781Z,100936.84
2023-01-02T01:21:00.108Z,100938.53
2023-01-02T01:24:02.436Z,100932.66
2023-01-02T01:27:04.959Z,100947.13
2023-01-02T01:30:07.980Z,100951.13
2023-01-02T01:33:10.311Z,100948.41
2023-01-02T01:36:17.905Z,100949.03
2023-01-02T01:39:20.321Z,100932.28
2023-01-02T01:42:22.825Z,100956.50
2023-01-02T01:45:25.247Z,100943.84
2023-01-02T01:48:27.720Z,100961.34
2023-01-02T01:51:31.975Z,100955.06
2023-01-02T01:54:40.921Z,100965.72
2023-01-02T01:57:54.100Z,100946.09
2023-01-02T02:00:57.166Z,100944.88
2023-01-02T02:03:59.660Z,100957.44
2023-01-02T02:07:01.949Z,100951.41
2023-01-02T02:10:08.776Z,100950.94
2023-01-02T02:13:11.053Z,100942.94
2023-01-02T02:16:23.283Z,100951.31
2023-01-02T02:19:40.746Z,100957.31
2023-01-02T02:23:20.435Z,100954.28
2023-01-02T02:26:47.564Z,100947.44
2023-01-02T02:30:11.610Z,100946.38
2023-01-02T02:33:18.313Z,100947.25
2023-01-02T02:36:34.596Z,100946.97
2023-01-02T02:39:42.699Z,100950.28
2023-01-02T02:43:20.127Z,100948.28
2023-01-02T02:47:07.704Z,100941.50
2023-01-02T02:50:18.043Z,100928.34
2023-01-02T02:53:28.742Z,100922.75
2023-01-02T02:56:32.074Z,100929.31
2023-01-02T02:59:35.584Z,100932.34
2023-01-02T03:02:38.160Z,100927.19
2023-01-02T03:05:41.517Z,100925.84
2023-01-02T03:09:21.235Z,100871.91
2023-01-02T03:12:52.844Z,100922.03
2023-01-02T03:16:10.265Z,100920.06
2023-01-02T03:19:15.676Z,100913.56
2023-01-02T03:22:20.826Z,100907.63
2023-01-02T03:25:23.643Z,100899.03
2023-01-02T03:28:26.775Z,100894.63
2023-01-02T03:31:33.011Z,100893.53
2023-01-02T03:34:37.865Z,100891.94
2023-01-02T03:37:43.408Z,100882.06
2023-01-02T03:40:49.832Z,100879.94
2023-01-02T03:43:56.967Z,100878.63
2023-01-02T03:47:38.221Z,100884.97
2023-01-02T03:50:50.586Z,100864.16
2023-01-02T03:53:53.183Z,100861.50
2023-01-02T03:57:13.936Z,100869.31
2023-01-02T04:00:21.336Z,100841.72
2023-01-02T04:03:32.076Z,100841.88
2023-01-02T04:06:40.831Z,100829.41
2023-01-02T04:09:44.581Z,100838.72
2023-01-02T04:12:49.665Z,100839.44
2023-01-02T04:15:53.154Z,100836.84
2023-01-02T04:19:04.492Z,100831.16
2023-01-02T04:22:10.686Z,100827.06
2023-01-02T04:25:15.547Z,100831.50
2023-01-02T04:28:25.592Z,100833.59
2023-01-02T04:31:30.638Z,100838.16
2023-01-02T04:34:35.353Z,100829.59
2023-01-02T04:37:40.462Z,100833.19
2023-01-02T04:40:42.883Z,100824.91
2023-01-02T04:43:45.263Z,100818.66
2023-01-02T04:46:47.686Z,100810.69
2023-01-02T04:49:50.064Z,100809.31
2023-01-02T04:52:52.432Z,100766.81
2023-01-02T04:55:58.168Z,100808.88
2023-01-02T04:59:00.911Z,100791.66
2023-01-02T05:02:03.392Z,100803.84
2023-01-02T05:05:06.753Z,100796.25
2023-01-02T05:08:13.984Z,100790.31
2023-01-02T05:11:20.393Z,100780.47
2023-01-02T05:14:22.773Z,100777.16
2023-01-02T05:17:25.179Z,100771.28
2023-01-02T05:20:27.470Z,100771.88
2023-01-02T05:23:48.492Z,100759.50
2023-01-02T05:26:50.897Z,100764.06
2023-01-02T05:29:53.119Z,100751.22
2023-01-02T05:32:55.462Z,100744.09
2023-01-02T05:35:57.803Z,100740.50
2023-01-02T05:39:01.196Z,100739.13
2023-01-02T05:42:03.589Z,100739.63
2023-01-02T05:45:06.546Z,100725.56
2023-01-02T05:48:09.094Z,100715.69
2023-01-02T05:51:14.570Z,100698.63
2023-01-02T05:54:16.982Z,100705.38
2023-01-02T05:57:19.390Z,100709.41
2023-01-02T06:00:21.658Z,100696.63
2023-01-02T06:03:24.137Z,100689.50
2023-01-02T06:06:31.802Z,100668.22
2023-01-02T06:09:34.099Z,100673.59
2023-01-02T06:12:36.426Z,100665.88
2023-01-02T06:15:38.855Z,100670.25
2023-01-02T06:18:41.539Z,100676.03
2023-01-02T06:21:43.886Z,100659.41
2023-01-02T06:24:46.292Z,100655.28
2023-01-02T06:27:48.671Z,100666.03
2023-01-02T06:30:50.959Z,100647.13
2023-01-02T06:33:57.303Z,100639.06
2023-01-02T06:37:06.082Z,100648.94
2023-01-02T06:40:12.534Z,100635.56
2023-01-02T06:43:15.012Z,100635.63
2023-01-02T06:46:19.828Z,100656.22
2023-01-02T06:49:22.234Z,100655.34
2023-01-02T06:52:24.644Z,100651.25
2023-01-02T06:55:26.926Z,100635.69
2023-01-02T06:58:31.877Z,100642.81
2023-01-02T07:01:34.340Z,100620.75
2023-01-02T07:04:36.727Z,100600.19
2023-01-02T07:07:39.123Z,100610.91
2023-01-02T07:10:41.540Z,100606.28
2023-01-02T07:13:44.497Z,100614.63
2023-01-02T07:16:46.981Z,100620.13
2023-01-02T07:19:53.496Z,100605.00
2023-01-02T07:22:57.617Z,100600.56
2023-01-02T07:26:01.171Z,100601.47
2023-01-02T07:29:03.612Z,100594.38
2023-01-02T07:32:06.043Z,100596.50
2023-01-02T07:35:08.917Z,100583.72
2023-01-02T07:38:11.499Z,100584.91
2023-01-02T07:41:18.571Z,100586.72
2023-01-02T07:44:21.017Z,100582.97
2023-01-02T07:47:23.783Z,100585.41
2023-01-02T07:50:26.130Z,100573.63
2023-01-02T07:53:28.858Z,100567.44
2023-01-02T07:56:31.161Z,100571.50
2023-01-02T07:59:33.479Z,100571.09
2023-01-02T08:02:35.837Z,100586.69
2023-01-02T08:05:38.364Z,100580.00
2023-01-02T08:08:41.762Z,100574.53
2023-01-02T08:11:44.135Z,100587.81
2023-01-02T08:14:46.528Z,100574.00
2023-01-02T08:17:48.963Z,100576.53
2023-01-02T08:20:51.348Z,100580.41
2023-01-02T08:23:53.981Z,100570.88
2023-01-02T08:26:56.414Z,100555.09
2023-01-02T08:29:58.865Z,100565.75
2023-01-02T08:33:01.389Z,100559.75
2023-01-02T08:36:03.758Z,100571.88
2023-01-02T08:39:06.093Z,100569.44
2023-01-02T08:42:09.709Z,100566.97
2023-01-02T08:45:12.501Z,100578.16
2023-01-02T08:48:19.911Z,100578.09
2023-01-02T08:51:23.867Z,100562.91
2023-01-02T08:54:26.357Z,100583.63
2023-01-02T08:57:28.643Z,100577.13
2023-01-02T09:00:31.019Z,100579.06
2023-01-02T09:03:33.529Z,100573.72
2023-01-02T09:06:37.439Z,100579.75
2023-01-02T09:09:39.800Z,100569.09
2023-01-02T09:12:42.194Z,100564.47
2023-01-02T09:15:47.376Z,100588.78
2023-01-02T09:18:50.361Z,100590.41
2023-01-02T09:21:52.775Z,100573.59
2023-01-02T09:24:55.805Z,100569.22
2023-01-02T09:27:58.187Z,100579.03
2023-01-02T09:31:00.634Z,100587.75
2023-01-02T09:34:04.619Z,100557.81
2023-01-02T09:37:07.046Z,100559.97
2023-01-02T09:40:10.133Z,100555.91
2023-01-02T09:43:13.594Z,100547.22
2023-01-02T09:46:27.817Z,100556.78
2023-01-02T09:49:42.895Z,100552.38
2023-01-02T09:52:50.808Z,100559.47
2023-01-02T09:56:02.624Z,100556.78
2023-01-02T09:59:15.541Z,100554.56
2023-01-02T10:02:37.233Z,100539.84
2023-01-02T10:06:12.611Z,100542.59
2023-01-02T10:09:31.046Z,100529.22
2023-01-02T10:12:53.296Z,100535.22
2023-01-02T10:15:56.514Z,100532.75
2023-01-02T10:19:01.445Z,100530.56
2023-01-02T10:22:04.022Z,100528.38
2023-01-02T10:25:16.060Z,100511.41
2023-01-02T10:28:57.715Z,100516.34
2023-01-02T10:32:02.246Z,100515.84
2023-01-02T10:35:07.332Z,100525.31
2023-01-02T10:38:12.866Z,100524.47
2023-01-02T10:41:15.165Z,100504.56
2023-01-02T10:44:26.888Z,100517.34
2023-01-02T10:47:37.592Z,100526.09
2023-01-02T10:50:47.212Z,100518.78
2023-01-02T10:54:07.587Z,100501.53
2023-01-02T10:57:14.181Z,100485.75
2023-01-02T11:00:27.205Z,100503.38
2023-01-02T11:03:30.568Z,100489.78
2023-01-02T11:06:39.282Z,100491.97
2023-01-02T11:09:55.255Z,100480.22
2023-01-02T11:13:03.366Z,100494.06
2023-01-02T11:16:07.506Z,100476.97
2023-01-02T11:19:20.417Z,100480.22
2023-01-02T11:22:33.852Z,100471.22
2023-01-02T11:25:42.841Z,100475.53
2023-01-02T11:28:45.167Z,100467.91
2023-01-02T11:31:57.282Z,100469.00
2023-01-02T11:35:02.469Z,100460.50
2023-01-02T11:38:04.959Z,100455.81
2023-01-02T11:41:23.643Z,100459.69
2023-01-02T11:44:38.990Z,100463.72
2023-01-02T11:48:14.775Z,100457.78
2023-01-02T11:51:18.996Z,100462.94
2023-01-02T11:54:22.896Z,100461.84
2023-01-02T11:57:51.211Z,100449.84
2023-01-02T12:00:56.412Z,100444.28
2023-01-02T12:04:00.044Z,100458.25
2023-01-02T12:07:14.710Z,100459.03
2023-01-02T12:10:16.988Z,100459.03
2023-01-02T12:13:22.210Z,100456.47
2023-01-02T12:16:37.881Z,100446.72
2023-01-02T12:20:05.214Z,100437.31
2023-01-02T12:23:38.745Z,100437.81
2023-01-02T12:26:47.041Z,100434.50
2023-01-02T12:30:20.713Z,100428.50
2023-01-02T12:33:44.653Z,100425.78
2023-01-02T12:37:04.047Z,100420.22
2023-01-02T12:40:06.556Z,100415.28
2023-01-02T12:43:42.618Z,100415.50
2023-01-02T12:46:54.255Z,100425.22
2023-01-02T12:50:26.370Z,100434.75
2023-01-02T12:53:28.602Z,100426.91
2023-01-02T12:56:45.726Z,100432.16
2023-01-02T13:00:28.530Z,100439.53
2023-01-02T13:03:48.379Z,100444.56
2023-01-02T13:06:52.567Z,100451.88
2023-01-02T13:09:57.118Z,100412.53
2023-01-02T13:12:59.855Z,100405.06
2023-01-02T13:16:20.697Z,100392.53
2023-01-02T13:19:59.271Z,100414.34
2023-01-02T13:23:16.768Z,100399.28
2023-01-02T13:26:23.246Z,100401.84
2023-01-02T13:29:30.724Z,100411.06
2023-01-02T13:32:33.111Z,100415.97
2023-01-02T13:35:37.858Z,100410.34
2023-01-02T13:38:40.508Z,100396.22
2023-01-02T13:42:29.908Z,100395.44
2023-01-02T13:45:50.653Z,100388.22
2023-01-02T13:48:57.102Z,100387.94
2023-01-02T13:52:02.388Z,100387.41
2023-01-02T13:55:28.708Z,100396.41
2023-01-02T13:59:01.628Z,100410.63
2023-01-02T14:02:16.490Z,100392.06
2023-01-02T14:05:56.228Z,100382.75
2023-01-02T14:09:26.730Z,100369.94
2023-01-02T14:12:29.465Z,100378.91
2023-01-02T14:15:33.493Z,100381.69
2023-01-02T14:18:38.524Z,100393.16
2023-01-02T14:21:51.645Z,100383.59
2023-01-02T14:24:54.339Z,100388.53
2023-01-02T14:27:59.326Z,100374.56
2023-01-02T14:31:04.715Z,100356.91
2023-01-02T14:34:07.158Z,100363.66
2023-01-02T14:37:10.254Z,100370.22
2023-01-02T14:40:21.651Z,100382.03
2023-01-02T14:43:31.550Z,100388.38
2023-01-02T14:46:33.869Z,100389.25
2023-01-02T14:49:36.302Z,100400.94
2023-01-02T14:52:41.340Z,100406.94
2023-01-02T14:55:44.037Z,100414.31
2023-01-02T14:58:48.440Z,100409.97
2023-01-02T15:01:51.584Z,100409.63
2023-01-02T15:04:58.058Z,100424.88
2023-01-02T15:08:01.425Z,100428.25
2023-01-02T15:11:24.450Z,100428.03
2023-01-02T15:14:26.817Z,100436.53
2023-01-02T15:17:29.115Z,100440.59
2023-01-02T15:20:34.428Z,100427.31
2023-01-02T15:23:37.652Z,100434.94
2023-01-02T15:26:40.342Z,100426.47
2023-01-02T15:29:47.919Z,100403.91
2023-01-02T15:32:50.658Z,100412.06
2023-01-02T15:35:58.393Z,100413.63
2023-01-02T15:39:16.902Z,100420.47
2023-01-02T15:42:46.048Z,100431.19
2023-01-02T15:45:51.779Z,100428.19
2023-01-02T15:48:54.323Z,100428.22
2023-01-02T15:51:57.680Z,100428.22
2023-01-02T15:55:00.562Z,100424.31
2023-01-02T15:58:20.600Z,100433.38
2023-01-02T16:01:24.044Z,100428.47
2023-01-02T16:04:30.633Z,100433.94
2023-01-02T16:07:36.861Z,100431.22
2023-01-02T16:10:39.144Z,100421.72
2023-01-02T16:14:07.591Z,100431.19
2023-01-02T16:17:23.719Z,100424.97
2023-01-02T16:20:27.751Z,100422.22
2023-01-02T16:23:30.134Z,100421.41
2023-01-02T16:26:33.697Z,100410.75
2023-01-02T16:29:42.420Z,100411.50
2023-01-02T16:32:49.021Z,100406.03
2023-01-02T16:36:00.364Z,100406.84
2023-01-02T16:39:03.437Z,100402.53
2023-01-02T16:42:24.322Z,100397.22
2023-01-02T16:45:26.829Z,100394.56
2023-01-02T16:48:30.191Z,100404.44
2023-01-02T16:51:32.721Z,100398.75
2023-01-02T16:54:35.045Z,100397.81
2023-01-02T16:57:37.318Z,100411.50
2023-01-02T17:00:43.344Z,100391.00
2023-01-02T17:03:46.278Z,100411.75
2023-01-02T17:06:48.703Z,100411.81
2023-01-02T17:09:51.193Z,100392.94
2023-01-02T17:12:53.652Z,100410.13
2023-01-02T17:15:56.581Z,100415.25
2023-01-02T17:18:59.299Z,100422.88
2023-01-02T17:22:01.774Z,100414.22
2023-01-02T17:25:05.949Z,100427.31
2023-01-02T17:28:08.296Z,100419.66
2023-01-02T17:31:15.394Z,100410.38
2023-01-02T17:34:17.771Z,100413.44
2023-01-02T17:37:22.015Z,100407.44
2023-01-02T17:40:24.279Z,100410.47
2023-01-02T17:43:27.009Z,100393.75
2023-01-02T17:47:04.550Z,100403.81
2023-01-02T17:49:52.599Z,100395.13
2023-01-02T17:52:55.041Z,100405.06
2023-01-02T17:56:20.987Z,100418.56
2023-01-02T17:59:24.148Z,100407.13
2023-01-02T18:02:26.730Z,100419.03
2023-01-02T18:05:29.179Z,100412.38
2023-01-02T18:08:31.577Z,100416.84
2023-01-02T18:11:35.442Z,100422.50
2023-01-02T18:14:39.304Z,100416.84
2023-01-02T18:17:42.225Z,100413.00
2023-01-02T18:20:46.100Z,100427.13
2023-01-02T18:23:50.627Z,100415.22
2023-01-02T18:27:07.849Z,100417.94
2023-01-02T18:30:18.514Z,100419.69
2023-01-02T18:33:21.464Z,100421.09
2023-01-02T18:36:25.155Z,100405.00
2023-01-02T18:39:34.529Z,100405.03
2023-01-02T18:42:37.088Z,100408.31
2023-01-02T18:45:39.674Z,100401.19
2023-01-02T18:48:42.604Z,100399.47
2023-01-02T18:51:46.084Z,100399.50
2023-01-02T18:54:55.777Z,100410.94
2023-01-02T18:58:04.120Z,100417.13
2023-01-02T19:01:36.569Z,100414.22
2023-01-02T19:04:40.196Z,100413.56
2023-01-02T19:07:43.117Z,100420.34
2023-01-02T19:10:53.331Z,100425.66
2023-01-02T19:13:58.865Z,100434.63
2023-01-02T19:17:10.097Z,100427.06
2023-01-02T19:20:12.719Z,100435.75
2023-01-02T19:23:30.840Z,100434.66
2023-01-02T19:26:38.337Z,100440.72
2023-01-02T19:29:44.036Z,100434.66
2023-01-02T19:32:46.381Z,100426.75
2023-01-02T19:35:56.866Z,100428.38
2023-01-02T19:38:59.447Z,100425.94
2023-01-02T19:42:20.695Z,100405.78
2023-01-02T19:45:25.497Z,100435.97
2023-01-02T19:48:27.816Z,100425.94
2023-01-02T19:51:32.276Z,100449.91
2023-01-02T19:54:34.942Z,100436.78
2023-01-02T19:57:37.618Z,100449.38
2023-01-02T20:00:40.252Z,100448.28
2023-01-02T20:03:42.675Z,100444.22
2023-01-02T20:06:45.104Z,100443.94
2023-01-02T20:09:47.703Z,100443.66
2023-01-02T20:12:50.304Z,100439.88
2023-01-02T20:15:52.648Z,100437.97
2023-01-02T20:18:55.073Z,100431.94
2023-01-02T20:21:57.459Z,100361.78
2023-01-02T20:25:00.010Z,100419.75
2023-01-02T20:28:04.249Z,100442.09
2023-01-02T20:31:06.697Z,100439.66
2023-01-02T20:34:08.989Z,100443.75
2023-01-02T20:37:11.341Z,100447.63
2023-01-02T20:40:13.697Z,100447.63
2023-01-02T20:43:16.127Z,100459.63
2023-01-02T20:46:18.500Z,100461.53
2023-01-02T20:49:20.937Z,100472.97
2023-01-02T20:52:23.302Z,100478.44
2023-01-02T20:55:25.954Z,100455.81
2023-01-02T20:58:28.382Z,100477.97
2023-01-02T21:01:30.833Z,100474.41
2023-01-02T21:04:36.734Z,100469.00
2023-01-02T21:07:39.648Z,100474.44
2023-01-02T21:10:43.840Z,100482.59
2023-01-02T21:13:46.286Z,100485.84
2023-01-02T21:16:48.831Z,100479.59
2023-01-02T21:19:51.195Z,100488.31
2023-01-02T21:22:53.571Z,100495.41
2023-01-02T21:25:56.758Z,100515.31
2023-01-02T21:28:59.279Z,100507.66
2023-01-02T21:32:01.687Z,100516.13
2023-01-02T21:35:04.208Z,100521.03
2023-01-02T21:38:06.531Z,100514.75
2023-01-02T21:41:27.452Z,100532.19
2023-01-02T21:44:29.777Z,100541.50
2023-01-02T21:47:32.088Z,100534.91
2023-01-02T21:50:34.582Z,100543.38
2023-01-02T21:53:36.967Z,100550.19
2023-01-02T21:56:39.430Z,100558.59
2023-01-02T21:59:41.862Z,100559.13
2023-01-02T22:02:44.677Z,100555.06
2023-01-02T22:05:47.102Z,100556.66
2023-01-02T22:08:49.553Z,100571.44
2023-01-02T22:11:55.687Z,100577.94
2023-01-02T22:14:58.259Z,100575.78
2023-01-02T22:18:00.571Z,100582.06
2023-01-02T22:21:03.168Z,100578.50
2023-01-02T22:24:05.996Z,100574.97
2023-01-02T22:27:13.002Z,100575.28
2023-01-02T22:30:22.146Z,100590.00
2023-01-02T22:33:27.008Z,100586.19
2023-01-02T22:36:31.586Z,100596.00
2023-01-02T22:39:34.001Z,100599.84
2023-01-02T22:43:04.286Z,100618.91
2023-01-02T22:46:12.113Z,100609.91
2023-01-02T22:49:16.841Z,100627.88
2023-01-02T22:52:19.185Z,100627.88
2023-01-02T22:55:23.686Z,100636.53
2023-01-02T22:58:26.386Z,100636.84
2023-01-02T23:01:32.551Z,100638.50
2023-01-02T23:04:35.012Z,100642.56
2023-01-02T23:07:37.368Z,100648.00
2023-01-02T23:10:39.893Z,100645.53
2023-01-02T23:13:43.195Z,100648.47
2023-01-02T23:17:04.219Z,100660.19
2023-01-02T23:20:07.261Z,100673.69
2023-01-02T23:23:11.782Z,100691.41
2023-01-02T23:26:15.561Z,100696.66
2023-01-02T23:29:18.945Z,100697.69
2023-01-02T23:32:21.280Z,100697.19
2023-01-02T23:35:23.564Z,100704.69
2023-01-02T23:38:25.843Z,100687.44
2023-01-02T23:41:28.196Z,100706.97
2023-01-02T23:44:30.552Z,100705.56
2023-01-02T23:47:32.839Z,100712.00
2023-01-02T23:50:35.187Z,100713.72
2023-01-02T23:53:37.487Z,100709.00
2023-01-02T23:56:42.712Z,100700.41
2023-01-02T23:59:44.951Z,100715.81
